Flood From: 18-02-2018 16:00 Until: 19-02-2018 16:00 warning for: Flood Level: Yellow info button

Although rather usual in this region, locally or potentially dangerous phenomena are expected. (such as local winds, summer thunderstorms, rising streams or high waves) Be aware and pay attention to the latest weather updates, especially if you carry out activities exposed to weather or close to a stream or shoreline. 


Meteo18 Weather Cam more information Meteo18 Weather Cam


Thunder radar more information blitzortung!


Rain radar more information rain snow radar


Visit our other weather sites:

Template documentation
and downloads

And another site



Weather Underground History page Text

Daily Summary for March 5, 2017 Units:  Metric    English   Both
« Previous Day
Next Day »
Daily Weekly Monthly Yearly Custom
  High: Low: Average:
Temperature: -17.8 °C -16.1 °C -14.1 °C
Dew Point: -17.8 °C -16.6 °C -15.4 °C
Humidity: Humidity % 67 % 85 %
Wind Speed: 0 km/h 0 km/h 22.7 km/h
Wind Gust: 0 km/h - -
Wind:- - SW
Pressure: 0 hPa 33937.9 hPa -
Precipitation: 193.04 mm    
Historical Graphs
 
 
Tabular Data for March 5, 2017
Time Temperature Dew Point Pressure Wind Wind Speed Wind Gust Humidity Rainfall Rate (Hourly)
-17.8 °C -17.8 °C 0 hPa Calm     Humidity % 0 mm
00:02 -14.8 °C -15.6 °C 33992.1 hPa SW 23.3 km/h 41.4 km/h 91 % 0 mm
00:07 -14.8 °C -15.5 °C 33992.1 hPa SW 18.2 km/h 33.6 km/h 92 % 0 mm
00:12 -14.8 °C -15.5 °C 34005.6 hPa SW 12.9 km/h 28.5 km/h 92 % 0 mm
00:17 -14.8 °C -15.4 °C 34005.6 hPa SSW 12.9 km/h 33.6 km/h 93 % 0 mm
00:22 -14.8 °C -15.4 °C 34005.6 hPa SSW 18.2 km/h 33.6 km/h 93 % 0 mm
00:27 -14.8 °C -15.3 °C 34015.8 hPa SSW 15.6 km/h 33.6 km/h 93 % 0 mm
00:32 -14.8 °C -15.3 °C 34015.8 hPa SW 20.8 km/h 31.1 km/h 93 % 0 mm
00:42 -14.8 °C -15.3 °C 34015.8 hPa SW 28.5 km/h 33.6 km/h 93 % 0 mm
00:47 -14.7 °C -15.3 °C 34015.8 hPa SW 15.6 km/h 33.6 km/h 93 % 0 mm
00:52 -14.7 °C -15.2 °C 34029.3 hPa SSW 12.9 km/h 36.2 km/h 93 % 0 mm
00:57 -14.6 °C -15.2 °C 34029.3 hPa WSW 20.8 km/h 36.2 km/h 93 % 0 mm
01:02 -14.6 °C -15.2 °C 34029.3 hPa SW 20.8 km/h 36.2 km/h 93 % 0 mm
01:07 -14.6 °C -15.1 °C 34029.3 hPa WSW 36.2 km/h 36.2 km/h 93 % 0 mm
01:12 -14.5 °C -15.1 °C 34029.3 hPa West 20.8 km/h 38.8 km/h 93 % 0 mm
01:17 -14.4 °C -15.1 °C 34029.3 hPa WSW 28.5 km/h 38.8 km/h 92 % 0 mm
01:22 -14.4 °C -15.1 °C 34029.3 hPa WSW 28.5 km/h 38.8 km/h 92 % 0 mm
01:27 -14.4 °C -15.1 °C 34039.5 hPa SW 20.8 km/h 38.8 km/h 92 % 0 mm
01:32 -14.3 °C -15 °C 34039.5 hPa West 23.3 km/h 41.4 km/h 92 % 0 mm
01:37 -14.3 °C -15.1 °C 34049.6 hPa WSW 28.5 km/h 44.1 km/h 91 % 0 mm
01:42 -14.3 °C -15.1 °C 34039.5 hPa SW 12.9 km/h 44.1 km/h 91 % 0 mm
01:47 -14.3 °C -15.1 °C 34039.5 hPa SW 18.2 km/h 38.8 km/h 91 % 0 mm
01:52 -14.3 °C -15.1 °C 34039.5 hPa WSW 12.9 km/h 38.8 km/h 91 % 0 mm
01:57 -14.4 °C -15.2 °C 34039.5 hPa WSW 25.9 km/h 33.6 km/h 91 % 0 mm
02:02 -14.4 °C -15.2 °C 34039.5 hPa West 20.8 km/h 41.4 km/h 91 % 0 mm
02:07 -14.4 °C -15.2 °C 34039.5 hPa West 15.6 km/h 41.4 km/h 91 % 0 mm
02:12 -14.4 °C -15.2 °C 34049.6 hPa WSW 12.9 km/h 41.4 km/h 91 % 0 mm
02:17 -14.4 °C -15.2 °C 34049.6 hPa SW 23.3 km/h 38.8 km/h 91 % 0 mm
02:22 -14.4 °C -15.2 °C 34039.5 hPa SW 31.1 km/h 38.8 km/h 91 % 0 mm
02:27 -14.4 °C -15.2 °C 34049.6 hPa WSW 31.1 km/h 44.1 km/h 91 % 0 mm
02:32 -14.5 °C -15.3 °C 34049.6 hPa SW 18.2 km/h 49.2 km/h 91 % 0 mm
02:37 -14.5 °C -15.3 °C 34049.6 hPa SW 15.6 km/h 49.2 km/h 91 % 0 mm
02:42 -14.5 °C -15.3 °C 34049.6 hPa SW 25.9 km/h 49.2 km/h 91 % 0 mm
02:47 -14.5 °C -15.3 °C 34049.6 hPa SW 12.9 km/h 44.1 km/h 91 % 0 mm
02:52 -14.5 °C -15.3 °C 34049.6 hPa West 5.1 km/h 44.1 km/h 91 % 0 mm
02:57 -14.6 °C -15.3 °C 34063.2 hPa WSW 20.8 km/h 44.1 km/h 91 % 0 mm
03:02 -14.6 °C -15.3 °C 34063.2 hPa SW 20.8 km/h 36.2 km/h 91 % 0 mm
03:07 -14.6 °C -15.3 °C 34063.2 hPa West 18.2 km/h 38.8 km/h 91 % 0 mm
03:12 -14.6 °C -15.3 °C 34063.2 hPa SW 23.3 km/h 41.4 km/h 91 % 0 mm
03:17 -14.6 °C -15.3 °C 34063.2 hPa WSW 15.6 km/h 41.4 km/h 91 % 0 mm
03:22 -14.6 °C -15.3 °C 34063.2 hPa WSW 12.9 km/h 41.4 km/h 91 % 0 mm
03:27 -14.6 °C -15.4 °C 34063.2 hPa SW 20.8 km/h 38.8 km/h 91 % 0 mm
03:32 -14.6 °C -15.4 °C 34063.2 hPa West 7.7 km/h 38.8 km/h 91 % 0 mm
03:37 -14.6 °C -15.4 °C 34063.2 hPa SW 23.3 km/h 33.6 km/h 91 % 0 mm
03:42 -14.6 °C -15.4 °C 34063.2 hPa SW 12.9 km/h 31.1 km/h 91 % 0 mm
03:47 -14.7 °C -15.4 °C 34063.2 hPa WSW 20.8 km/h 33.6 km/h 91 % 0 mm
03:52 -14.7 °C -15.4 °C 34073.3 hPa WSW 18.2 km/h 36.2 km/h 91 % 0 mm
03:57 -14.7 °C -15.4 °C 34063.2 hPa SW 12.9 km/h 36.2 km/h 92 % 0 mm
04:02 -14.8 °C -15.6 °C 34063.2 hPa SW 10.3 km/h 36.2 km/h 91 % 0 mm
04:07 -14.8 °C -15.4 °C 34063.2 hPa SSW 15.6 km/h 33.6 km/h 92 % 0 mm
04:12 -14.8 °C -15.5 °C 34063.2 hPa WSW 15.6 km/h 31.1 km/h 92 % 0 mm
04:17 -14.8 °C -15.5 °C 34063.2 hPa SSW 12.9 km/h 31.1 km/h 92 % 0 mm
04:22 -14.9 °C -15.6 °C 34073.3 hPa WSW 10.3 km/h 31.1 km/h 92 % 0 mm
04:27 -14.9 °C -15.6 °C 34073.3 hPa SW 12.9 km/h 31.1 km/h 92 % 0 mm
04:32 -15.1 °C -15.7 °C 34073.3 hPa SW 10.3 km/h 25.9 km/h 92 % 0 mm
04:37 -15.1 °C -15.8 °C 34086.9 hPa SSW 7.7 km/h 25.9 km/h 92 % 0 mm
04:42 -15.2 °C -15.8 °C 34086.9 hPa SW 7.7 km/h 20.8 km/h 93 % 0 mm
04:47 -15.3 °C -15.9 °C 34086.9 hPa South 7.7 km/h 18.2 km/h 93 % 0 mm
04:52 -15.4 °C -15.9 °C 34086.9 hPa SSW 10.3 km/h 15.6 km/h 93 % 0 mm
04:57 -15.4 °C -16 °C 34086.9 hPa SW 5.1 km/h 15.6 km/h 93 % 0 mm
05:02 -15.6 °C -16.1 °C 34086.9 hPa SSW 2.6 km/h 15.6 km/h 93 % 0 mm
05:07 -15.6 °C -16.1 °C 34086.9 hPa South 2.6 km/h 15.6 km/h 94 % 0 mm
05:12 -15.7 °C -16.2 °C 34086.9 hPa SE 2.6 km/h 15.6 km/h 94 % 0 mm
05:17 -15.7 °C -16.2 °C 34086.9 hPa Calm   15.6 km/h 94 % 0 mm
05:22 -15.7 °C -16.2 °C 34086.9 hPa SE 2.6 km/h 10.3 km/h 94 % 0 mm
05:27 -15.8 °C -16.3 °C 34086.9 hPa Calm   10.3 km/h 94 % 0 mm
05:32 -15.8 °C -16.3 °C 34086.9 hPa SE 2.6 km/h 10.3 km/h 94 % 0 mm
05:37 -15.8 °C -16.3 °C 34086.9 hPa SE 2.6 km/h 10.3 km/h 94 % 0 mm
05:42 -15.8 °C -16.3 °C 34086.9 hPa South 2.6 km/h 12.9 km/h 94 % 0 mm
05:47 -15.8 °C -16.3 °C 34086.9 hPa SSE 2.6 km/h 12.9 km/h 94 % 0 mm
05:52 -15.8 °C -16.3 °C 34086.9 hPa SSE 2.6 km/h 15.6 km/h 94 % 0 mm
05:57 -15.8 °C -16.3 °C 34086.9 hPa SE 7.7 km/h 15.6 km/h 94 % 0 mm
06:02 -15.9 °C -16.4 °C 34086.9 hPa SSE 7.7 km/h 15.6 km/h 94 % 0 mm
06:12 -16 °C -16.5 °C 34086.9 hPa SE 2.6 km/h 12.9 km/h 94 % 0 mm
06:17 -16 °C -16.5 °C 34086.9 hPa SE 7.7 km/h 12.9 km/h 94 % 0 mm
06:22 -16 °C -16.5 °C 34086.9 hPa Calm   12.9 km/h 94 % 0 mm
06:27 -16 °C -16.5 °C 34086.9 hPa SE 5.1 km/h 12.9 km/h 94 % 0 mm
06:32 -16 °C -16.5 °C 34086.9 hPa South 2.6 km/h 10.3 km/h 94 % 0 mm
06:37 -16 °C -16.5 °C 34086.9 hPa SSW 5.1 km/h 12.9 km/h 94 % 0 mm
06:42 -16.1 °C -16.6 °C 34086.9 hPa South 2.6 km/h 12.9 km/h 94 % 0 mm
06:47 -16 °C -16.4 °C 34086.9 hPa SSW 5.1 km/h 12.9 km/h 95 % 0 mm
06:52 -16 °C -16.5 °C 34086.9 hPa SSE 2.6 km/h 12.9 km/h 94 % 0 mm
07:02 -16.1 °C -16.6 °C 34073.3 hPa SSE 2.6 km/h 12.9 km/h 94 % 0 mm
07:07 -16.1 °C -16.6 °C 34073.3 hPa SSW 2.6 km/h 10.3 km/h 94 % 0 mm
07:17 -16 °C -16.4 °C 34073.3 hPa SSW 7.7 km/h 7.7 km/h 95 % 0 mm
07:22 -15.9 °C -16.3 °C 34073.3 hPa SSW 15.6 km/h 15.6 km/h 95 % 0 mm
07:27 -15.8 °C -16.3 °C 34073.3 hPa SSW 7.7 km/h 23.3 km/h 94 % 0 mm
07:32 -15.8 °C -16.3 °C 34073.3 hPa SW 12.9 km/h 23.3 km/h 94 % 0 mm
07:37 -15.7 °C -16.3 °C 34063.2 hPa SSW 10.3 km/h 25.9 km/h 93 % 0 mm
07:42 -15.7 °C -16.2 °C 34063.2 hPa SW 20.8 km/h 25.9 km/h 93 % 0 mm
07:47 -15.6 °C -16.3 °C 34049.6 hPa SW 10.3 km/h 28.5 km/h 92 % 0 mm
07:52 -15.6 °C -16.3 °C 34063.2 hPa SSW 18.2 km/h 28.5 km/h 92 % 0 mm
07:57 -15.6 °C -16.2 °C 34063.2 hPa SSW 10.3 km/h 28.5 km/h 92 % 0 mm
08:02 -15.5 °C -16.2 °C 34049.6 hPa SSW 12.9 km/h 28.5 km/h 92 % 0 mm
08:07 -15.4 °C -16.2 °C 34049.6 hPa South 15.6 km/h 31.1 km/h 91 % 0 mm
08:12 -15.4 °C -16.1 °C 34049.6 hPa SSW 20.8 km/h 33.6 km/h 91 % 0 mm
08:17 -15.3 °C -16 °C 34049.6 hPa SSW 20.8 km/h 33.6 km/h 91 % 0 mm
08:22 -15.2 °C -16.1 °C 34049.6 hPa SSW 15.6 km/h 33.6 km/h 90 % 0 mm
08:27 -15.2 °C -16 °C 34049.6 hPa South 15.6 km/h 31.1 km/h 90 % 0 mm
08:32 -15.2 °C -16 °C 34049.6 hPa South 18.2 km/h 28.5 km/h 90 % 0 mm
08:37 -15.1 °C -15.9 °C 34039.5 hPa South 20.8 km/h 33.6 km/h 90 % 0 mm
08:42 -15.1 °C -15.9 °C 34049.6 hPa South 28.5 km/h 36.2 km/h 90 % 0 mm
08:47 -15 °C -15.8 °C 34049.6 hPa South 18.2 km/h 36.2 km/h 90 % 0 mm
08:52 -14.9 °C -15.9 °C 34039.5 hPa SSW 10.3 km/h 41.4 km/h 89 % 0 mm
08:57 -14.9 °C -15.9 °C 34039.5 hPa SSW 12.9 km/h 41.4 km/h 89 % 0 mm
09:02 -14.9 °C -15.8 °C 34039.5 hPa SSW 15.6 km/h 41.4 km/h 89 % 0 mm
09:07 -14.8 °C -15.8 °C 34039.5 hPa SSW 15.6 km/h 36.2 km/h 89 % 0 mm
09:12 -14.8 °C -15.8 °C 34039.5 hPa SSW 15.6 km/h 36.2 km/h 89 % 0 mm
09:17 -14.8 °C -15.8 °C 34029.3 hPa SSW 15.6 km/h 36.2 km/h 88 % 0 mm
09:22 -14.8 °C -15.8 °C 34029.3 hPa South 12.9 km/h 31.1 km/h 88 % 0 mm
09:27 -14.8 °C -15.8 °C 34029.3 hPa SSW 33.6 km/h 33.6 km/h 88 % 0 mm
09:32 -14.7 °C -15.7 °C 34039.5 hPa SW 23.3 km/h 38.8 km/h 88 % 0 mm
09:37 -14.7 °C -15.7 °C 34029.3 hPa SSW 23.3 km/h 41.4 km/h 88 % 0 mm
09:42 -14.7 °C -15.7 °C 34029.3 hPa SSW 41.4 km/h 41.4 km/h 88 % 0 mm
09:52 -14.8 °C -15.7 °C 34029.3 hPa SSW 18.2 km/h 41.4 km/h 89 % 7.62 mm
09:57 -14.8 °C -15.8 °C 34029.3 hPa SSW 18.2 km/h 41.4 km/h 89 % 7.62 mm
10:02 -14.8 °C -15.7 °C 34029.3 hPa SSW 12.9 km/h 41.4 km/h 90 % 12.7 mm
10:07 -14.9 °C -15.7 °C 34015.8 hPa SSE 18.2 km/h 41.4 km/h 90 % 12.7 mm
10:12 -14.9 °C -15.6 °C 34015.8 hPa SSE 31.1 km/h 41.4 km/h 91 % 12.7 mm
10:17 -14.9 °C -15.6 °C 34005.6 hPa SSE 15.6 km/h 38.8 km/h 91 % 20.32 mm
10:22 -14.9 °C -15.6 °C 34005.6 hPa South 10.3 km/h 38.8 km/h 92 % 25.4 mm
10:27 -14.9 °C -15.6 °C 33992.1 hPa SSE 23.3 km/h 38.8 km/h 92 % 33.02 mm
10:32 -14.9 °C -15.6 °C 33992.1 hPa SSE 18.2 km/h 36.2 km/h 92 % 38.1 mm
10:37 -14.9 °C -15.6 °C 33992.1 hPa South 18.2 km/h 41.4 km/h 92 % 38.1 mm
10:42 -14.9 °C -15.6 °C 33992.1 hPa SSW 31.1 km/h 41.4 km/h 92 % 45.72 mm
10:47 -14.9 °C -15.6 °C 33992.1 hPa South 15.6 km/h 41.4 km/h 92 % 50.8 mm
10:52 -14.9 °C -15.6 °C 33981.9 hPa SSW 20.8 km/h 41.4 km/h 92 % 45.72 mm
10:57 -14.9 °C -15.6 °C 33981.9 hPa SE 12.9 km/h 41.4 km/h 92 % 50.8 mm
11:02 -14.9 °C -15.6 °C 33981.9 hPa South 15.6 km/h 44.1 km/h 92 % 50.8 mm
11:07 -14.9 °C -15.6 °C 33981.9 hPa SSW 28.5 km/h 44.1 km/h 91 % 58.42 mm
11:12 -14.9 °C -15.6 °C 33981.9 hPa SSW 28.5 km/h 44.1 km/h 92 % 58.42 mm
11:17 -14.9 °C -15.6 °C 33971.7 hPa SSE 25.9 km/h 44.1 km/h 92 % 58.42 mm
11:22 -14.9 °C -15.6 °C 33981.9 hPa South 18.2 km/h 59.5 km/h 91 % 58.42 mm
11:27 -14.9 °C -15.6 °C 33971.7 hPa South 31.1 km/h 59.5 km/h 92 % 58.42 mm
11:32 -14.9 °C -15.6 °C 33971.7 hPa South 31.1 km/h 59.5 km/h 92 % 71.12 mm
11:37 -14.9 °C -15.6 °C 33958.2 hPa SW 25.9 km/h 41.4 km/h 92 % 83.82 mm
11:42 -14.9 °C -15.4 °C 33958.2 hPa South 25.9 km/h 41.4 km/h 93 % 83.82 mm
11:47 -14.9 °C -15.4 °C 33958.2 hPa SSE 15.6 km/h 41.4 km/h 93 % 83.82 mm
11:52 -14.8 °C -15.4 °C 33948 hPa SSW 23.3 km/h 46.7 km/h 93 % 83.82 mm
11:57 -14.8 °C -15.4 °C 33948 hPa SSW 38.8 km/h 46.7 km/h 93 % 83.82 mm
12:02 -14.8 °C -15.3 °C 33948 hPa SSW 36.2 km/h 49.2 km/h 93 % 83.82 mm
12:07 -14.8 °C -15.3 °C 33958.2 hPa SSW 28.5 km/h 49.2 km/h 93 % 76.2 mm
12:12 -14.8 °C -15.3 °C 33958.2 hPa SSW 31.1 km/h 54.4 km/h 93 % 71.12 mm
12:17 -14.8 °C -15.3 °C 33958.2 hPa SSW 28.5 km/h 62.1 km/h 94 % 63.5 mm
12:22 -14.8 °C -15.3 °C 33958.2 hPa South 18.2 km/h 62.1 km/h 94 % 58.42 mm
12:27 -14.8 °C -15.3 °C 33948 hPa South 31.1 km/h 51.8 km/h 94 % 45.72 mm
12:32 -14.7 °C -15.2 °C 33948 hPa SSW 36.2 km/h 51.8 km/h 94 % 38.1 mm
12:42 -14.6 °C -15.1 °C 33948 hPa SSW 28.5 km/h 51.8 km/h 93 % 20.32 mm
12:47 -14.5 °C -15.1 °C 33937.9 hPa South 31.1 km/h 51.8 km/h 93 % 20.32 mm
12:52 -14.5 °C -15 °C 33948 hPa SSW 38.8 km/h 54.4 km/h 94 % 20.32 mm
12:57 -14.4 °C -14.9 °C 33948 hPa SW 33.6 km/h 54.4 km/h 94 % 20.32 mm
13:02 -14.4 °C -14.9 °C 33948 hPa SW 51.8 km/h 54.4 km/h 93 % 20.32 mm
13:07 -14.3 °C -14.9 °C 33948 hPa SSW 28.5 km/h 59.5 km/h 93 % 20.32 mm
13:12 -14.3 °C -14.9 °C 33948 hPa SSW 23.3 km/h 59.5 km/h 92 % 33.02 mm
13:17 -14.3 °C -14.9 °C 33937.9 hPa SSW 23.3 km/h 59.5 km/h 92 % 38.1 mm
13:27 -14.1 °C -14.8 °C 33937.9 hPa SSW 33.6 km/h 67.3 km/h 92 % 38.1 mm
13:32 -14.1 °C -14.7 °C 33937.9 hPa WSW 36.2 km/h 67.3 km/h 92 % 38.1 mm
13:37 -14 °C -14.7 °C 33937.9 hPa WSW 36.2 km/h 67.3 km/h 92 % 38.1 mm
13:42 -13.9 °C -14.6 °C 33937.9 hPa WSW 28.5 km/h 57 km/h 92 % 38.1 mm
13:47 -13.8 °C -14.5 °C 33937.9 hPa SSW 28.5 km/h 57 km/h 92 % 33.02 mm
13:52 -13.7 °C -14.5 °C 33937.9 hPa SSW 12.9 km/h 57 km/h 91 % 33.02 mm
13:57 -13.7 °C -14.3 °C 33937.9 hPa WSW 15.6 km/h 57 km/h 92 % 25.4 mm
14:02 -13.6 °C -14.3 °C 33937.9 hPa WSW 44.1 km/h 51.8 km/h 91 % 20.32 mm
14:07 -13.5 °C -14.3 °C 33937.9 hPa SW 23.3 km/h 49.2 km/h 91 % 12.7 mm
14:12 -13.4 °C -14.1 °C 33937.9 hPa SW 20.8 km/h 49.2 km/h 92 % 12.7 mm
14:17 -13.2 °C -14 °C 33937.9 hPa WSW 33.6 km/h 49.2 km/h 91 % 7.62 mm
14:22 -13 °C -13.8 °C 33937.9 hPa SW 33.6 km/h 44.1 km/h 90 % 0 mm
14:27 -12.8 °C -13.9 °C 33937.9 hPa SW 23.3 km/h 51.8 km/h 88 % 0 mm
14:32 -12.6 °C -13.8 °C 33937.9 hPa WSW 44.1 km/h 57 km/h 86 % 0 mm
14:37 -12.5 °C -13.8 °C 33937.9 hPa SW 23.3 km/h 64.7 km/h 85 % 0 mm
14:42 -12.3 °C -13.7 °C 33937.9 hPa West 20.8 km/h 64.7 km/h 85 % 0 mm
14:47 -12.2 °C -13.6 °C 33937.9 hPa SW 31.1 km/h 64.7 km/h 84 % 0 mm
14:52 -12.1 °C -13.7 °C 33937.9 hPa West 10.3 km/h 57 km/h 83 % 0 mm
14:57 -12.1 °C -13.7 °C 33937.9 hPa West 20.8 km/h 62.1 km/h 83 % 0 mm
15:02 -12.1 °C -13.6 °C 33937.9 hPa WSW 33.6 km/h 62.1 km/h 83 % 0 mm
15:07 -11.9 °C -13.5 °C 33937.9 hPa SW 41.4 km/h 62.1 km/h 82 % 0 mm
15:12 -11.9 °C -13.8 °C 33937.9 hPa SW 36.2 km/h 57 km/h 79 % 0 mm
15:17 -11.8 °C -14 °C 33937.9 hPa SW 46.7 km/h 69.8 km/h 77 % 0 mm
15:22 -11.7 °C -14 °C 33937.9 hPa WSW 33.6 km/h 69.8 km/h 76 % 0 mm
15:27 -11.7 °C -14.1 °C 33937.9 hPa West 25.9 km/h 69.8 km/h 75 % 0 mm
15:32 -11.8 °C -14.4 °C 33937.9 hPa SW 46.7 km/h 62.1 km/h 72 % 0 mm
15:37 -11.8 °C -14.4 °C 33948 hPa West 31.1 km/h 67.3 km/h 72 % 0 mm
15:42 -11.7 °C -14.6 °C 33948 hPa SW 41.4 km/h 69.8 km/h 71 % 0 mm
15:47 -11.6 °C -14.4 °C 33948 hPa WSW 33.6 km/h 69.8 km/h 71 % 0 mm
15:52 -11.5 °C -14.7 °C 33948 hPa WSW 41.4 km/h 69.8 km/h 68 % 0 mm
15:57 -11.4 °C -14.4 °C 33948 hPa WNW 28.5 km/h 98.3 km/h 70 % 0 mm
16:02 -11.5 °C -14.4 °C 33958.2 hPa West 36.2 km/h 98.3 km/h 70 % 0 mm
16:07 -11.6 °C -14.4 °C 33971.7 hPa West 25.9 km/h 75.2 km/h 71 % 0 mm
16:12 -11.7 °C -14.5 °C 33981.9 hPa WNW 31.1 km/h 72.6 km/h 71 % 0 mm
16:17 -12.1 °C -14.7 °C 33992.1 hPa West 33.6 km/h 80.3 km/h 72 % 0 mm
16:22 -12.4 °C -14.5 °C 33992.1 hPa West 25.9 km/h 80.3 km/h 77 % 0 mm
16:27 -12.5 °C -14.5 °C 33992.1 hPa West 28.5 km/h 80.3 km/h 78 % 0 mm
16:32 -12.4 °C -14.4 °C 33992.1 hPa WSW 38.8 km/h 69.8 km/h 79 % 0 mm
16:37 -12.4 °C -14.4 °C 33981.9 hPa WSW 23.3 km/h 67.3 km/h 79 % 0 mm
16:42 -12.4 °C -14.4 °C 33981.9 hPa SSW 33.6 km/h 46.7 km/h 79 % 0 mm
16:47 -12.6 °C -14.7 °C 33981.9 hPa WSW 31.1 km/h 46.7 km/h 77 % 0 mm
16:52 -12.6 °C -14.8 °C 33981.9 hPa West 28.5 km/h 57 km/h 76 % 0 mm
16:57 -12.7 °C -14.8 °C 33992.1 hPa WSW 28.5 km/h 62.1 km/h 77 % 0 mm
17:02 -12.7 °C -14.9 °C 33992.1 hPa WSW 33.6 km/h 62.1 km/h 76 % 0 mm
17:07 -12.7 °C -15.1 °C 33992.1 hPa West 33.6 km/h 57 km/h 75 % 0 mm
17:12 -12.7 °C -15.1 °C 34005.6 hPa West 41.4 km/h 57 km/h 75 % 0 mm
17:17 -12.7 °C -15.2 °C 33992.1 hPa West 46.7 km/h 51.8 km/h 73 % 0 mm
17:22 -12.7 °C -15.2 °C 33992.1 hPa SW 38.8 km/h 51.8 km/h 73 % 0 mm
17:27 -12.6 °C -15.3 °C 33992.1 hPa WSW 44.1 km/h 59.5 km/h 72 % 0 mm
17:32 -12.6 °C -15.1 °C 34005.6 hPa West 41.4 km/h 62.1 km/h 74 % 0 mm
17:37 -12.6 °C -15.2 °C 34005.6 hPa West 28.5 km/h 62.1 km/h 73 % 0 mm
17:42 -12.6 °C -15.2 °C 34005.6 hPa WSW 33.6 km/h 62.1 km/h 73 % 0 mm
17:47 -12.6 °C -15.3 °C 34015.8 hPa West 44.1 km/h 62.1 km/h 71 % 0 mm
17:52 -12.5 °C -15.2 °C 34029.3 hPa WSW 51.8 km/h 62.1 km/h 72 % 0 mm
17:57 -12.5 °C -15.3 °C 34029.3 hPa West 31.1 km/h 82.9 km/h 71 % 0 mm
18:02 -12.6 °C -15.4 °C 34029.3 hPa WSW 28.5 km/h 82.9 km/h 70 % 0 mm
18:07 -12.6 °C -15.4 °C 34029.3 hPa WSW 41.4 km/h 82.9 km/h 70 % 0 mm
18:12 -12.6 °C -15.7 °C 34029.3 hPa WNW 23.3 km/h 64.7 km/h 68 % 0 mm
18:17 -12.6 °C -15.5 °C 34029.3 hPa WSW 25.9 km/h 64.7 km/h 70 % 0 mm
18:22 -12.6 °C -15.6 °C 34029.3 hPa West 23.3 km/h 64.7 km/h 69 % 0 mm
18:27 -12.7 °C -15.6 °C 34029.3 hPa WSW 33.6 km/h 54.4 km/h 70 % 0 mm
18:32 -12.7 °C -15.8 °C 34039.5 hPa West 49.2 km/h 54.4 km/h 68 % 0 mm
18:42 -12.7 °C -15.8 °C 34039.5 hPa WSW 18.2 km/h 62.1 km/h 68 % 0 mm
18:47 -12.7 °C -15.9 °C 34049.6 hPa WSW 44.1 km/h 62.1 km/h 67 % 0 mm
18:52 -12.7 °C -15.9 °C 34049.6 hPa SW 31.1 km/h 54.4 km/h 67 % 0 mm
18:57 -12.7 °C -15.9 °C 34049.6 hPa WNW 25.9 km/h 51.8 km/h 67 % 0 mm
19:02 -12.7 °C -15.9 °C 34063.2 hPa WNW 25.9 km/h 57 km/h 67 % 0 mm
19:07 -12.7 °C -15.9 °C 34063.2 hPa West 38.8 km/h 57 km/h 67 % 0 mm
19:12 -12.8 °C -16 °C 34073.3 hPa WSW 51.8 km/h 59.5 km/h 67 % 0 mm
19:17 -12.8 °C -16.1 °C 34073.3 hPa West 33.6 km/h 59.5 km/h 67 % 0 mm
19:22 -12.9 °C -16.1 °C 34073.3 hPa SSW 23.3 km/h 59.5 km/h 67 % 0 mm
19:27 -12.9 °C -16 °C 34086.9 hPa WSW 41.4 km/h 59.5 km/h 68 % 0 mm
19:32 -12.9 °C -16.1 °C 34086.9 hPa West 31.1 km/h 57 km/h 68 % 0 mm
19:37 -12.9 °C -15.9 °C 34086.9 hPa WSW 33.6 km/h 57 km/h 69 % 0 mm
19:42 -13 °C -16 °C 34086.9 hPa SW 18.2 km/h 54.4 km/h 69 % 0 mm
19:47 -13.1 °C -16 °C 34097 hPa West 23.3 km/h 51.8 km/h 70 % 0 mm
19:52 -13.1 °C -16 °C 34097 hPa WSW 12.9 km/h 51.8 km/h 70 % 0 mm
19:57 -13.2 °C -15.9 °C 34097 hPa West 20.8 km/h 38.8 km/h 71 % 0 mm
20:02 -13.2 °C -15.9 °C 34097 hPa SW 12.9 km/h 38.8 km/h 71 % 0 mm
20:07 -13.2 °C -15.8 °C 34097 hPa WSW 31.1 km/h 38.8 km/h 72 % 0 mm
20:17 -13.3 °C -15.8 °C 34097 hPa WSW 33.6 km/h 38.8 km/h 73 % 0 mm
20:22 -13.3 °C -15.7 °C 34097 hPa WSW 25.9 km/h 46.7 km/h 74 % 0 mm
20:27 -13.3 °C -15.7 °C 34097 hPa West 25.9 km/h 49.2 km/h 74 % 0 mm
20:32 -13.3 °C -15.7 °C 34107.2 hPa West 28.5 km/h 49.2 km/h 74 % 0 mm
20:37 -13.3 °C -15.7 °C 34107.2 hPa West 18.2 km/h 49.2 km/h 75 % 0 mm
20:42 -13.3 °C -15.7 °C 34120.7 hPa West 12.9 km/h 38.8 km/h 75 % 0 mm
20:47 -13.3 °C -15.7 °C 34120.7 hPa West 18.2 km/h 44.1 km/h 75 % 0 mm
20:52 -13.4 °C -15.6 °C 34130.9 hPa WSW 28.5 km/h 44.1 km/h 76 % 0 mm
20:57 -13.4 °C -15.6 °C 34130.9 hPa SW 20.8 km/h 44.1 km/h 76 % 0 mm
21:02 -13.4 °C -15.7 °C 34130.9 hPa WSW 33.6 km/h 44.1 km/h 76 % 0 mm
21:07 -13.4 °C -15.6 °C 34130.9 hPa WSW 12.9 km/h 44.1 km/h 77 % 0 mm
21:12 -13.4 °C -15.6 °C 34130.9 hPa West 18.2 km/h 46.7 km/h 77 % 0 mm
21:17 -13.4 °C -15.4 °C 34130.9 hPa SW 20.8 km/h 46.7 km/h 78 % 0 mm
21:27 -13.4 °C -15.3 °C 34144.4 hPa WSW 41.4 km/h 49.2 km/h 79 % 0 mm
21:32 -13.4 °C -15.3 °C 34144.4 hPa West 33.6 km/h 57 km/h 79 % 0 mm
21:37 -13.4 °C -15.2 °C 34144.4 hPa West 25.9 km/h 57 km/h 80 % 0 mm
21:42 -13.4 °C -15.2 °C 34144.4 hPa WSW 20.8 km/h 62.1 km/h 80 % 0 mm
21:47 -13.5 °C -15.3 °C 34144.4 hPa SW 15.6 km/h 62.1 km/h 80 % 0 mm
21:52 -13.6 °C -15.3 °C 34154.6 hPa WSW 18.2 km/h 49.2 km/h 81 % 0 mm
21:57 -13.6 °C -15.3 °C 34154.6 hPa WSW 28.5 km/h 46.7 km/h 81 % 0 mm
22:02 -13.6 °C -15.3 °C 34164.7 hPa WSW 46.7 km/h 46.7 km/h 81 % 0 mm
22:07 -13.6 °C -15.3 °C 34164.7 hPa WSW 25.9 km/h 49.2 km/h 81 % 0 mm
22:12 -13.6 °C -15.2 °C 34164.7 hPa West 15.6 km/h 49.2 km/h 82 % 0 mm
22:17 -13.6 °C -15.2 °C 34164.7 hPa SW 36.2 km/h 49.2 km/h 82 % 0 mm
22:22 -13.6 °C -15.2 °C 34178.3 hPa SW 28.5 km/h 49.2 km/h 82 % 0 mm
22:27 -13.7 °C -15.3 °C 34178.3 hPa WSW 23.3 km/h 51.8 km/h 82 % 0 mm
22:32 -13.7 °C -15.3 °C 34178.3 hPa WSW 25.9 km/h 51.8 km/h 82 % 0 mm
22:37 -13.6 °C -15.2 °C 34178.3 hPa SW 15.6 km/h 41.4 km/h 82 % 0 mm
22:42 -13.7 °C -15.2 °C 34178.3 hPa WSW 20.8 km/h 51.8 km/h 83 % 0 mm
22:47 -13.6 °C -15.1 °C 34188.4 hPa West 23.3 km/h 51.8 km/h 83 % 0 mm
22:52 -13.6 °C -15.2 °C 34188.4 hPa WSW 25.9 km/h 46.7 km/h 82 % 0 mm
23:02 -13.6 °C -15.1 °C 34198.6 hPa WSW 31.1 km/h 46.7 km/h 83 % 0 mm
23:07 -13.6 °C -15.1 °C 34198.6 hPa WSW 25.9 km/h 44.1 km/h 83 % 0 mm
23:12 -13.6 °C -15.1 °C 34188.4 hPa SW 33.6 km/h 51.8 km/h 83 % 0 mm
23:17 -13.6 °C -15.1 °C 34188.4 hPa WSW 23.3 km/h 51.8 km/h 83 % 0 mm
23:22 -13.6 °C -15.1 °C 34198.6 hPa West 18.2 km/h 49.2 km/h 83 % 0 mm
23:27 -13.6 °C -15.1 °C 34198.6 hPa West 31.1 km/h 49.2 km/h 83 % 0 mm
23:32 -13.6 °C -15.1 °C 34198.6 hPa West 25.9 km/h 57 km/h 83 % 0 mm
23:37 -13.6 °C -15.1 °C 34198.6 hPa WSW 38.8 km/h 57 km/h 83 % 0 mm
23:42 -13.7 °C -15.1 °C 34198.6 hPa WSW 15.6 km/h 57 km/h 84 % 0 mm
23:47 -13.7 °C -15.1 °C 34212.1 hPa WSW 23.3 km/h 54.4 km/h 84 % 0 mm
23:57 -13.7 °C -15 °C 34212.1 hPa SW 36.2 km/h 51.8 km/h 85 % 0 mm
Meteo18
Compliments of Weather Underground - 4 mb

Script developed by  Jim McMurry - jmcmurry@mwt.net Adapted for the template by  Wim van der Kuil - Leuven-Template.eu

You find our weather info also at:

European Weather Network

Weather Underground

Equipment we use:

Weather-station
Davis Vue

Weather-program
Meteobridge

Weather-server
Raspberry PI 2 B+

Provider
1 and 1

Davis Vue

Meteobridge

Raspberry PI 2 B+

1 and 1